Terminal Aerodrome Forecast
Issued by NWS

Home | Current Version | Previous Version | Text Only | Print | Product List | Glossary On
Versions: 1 2 3 4 5 6 7 8 9 10 11 12 13 14
000
FTAK31 PAFA 261029 AAA
TAFAUN
TAF AMD
PAUN 261029Z 2610/2706 10006KT P6SM VCSH OVC040
     FM261500 18012KT 5SM -RA BR BKN025 OVC035
     FM262100 24010KT P6SM OVC020=

USA.gov is the U.S. government's official web portal to all federal, state and local government web resources and services.